Fort Macleod, Canada
Current Conditions -  °F | °C
As of 1:00 AM on Saturday 20 Dec 2014 (Local Time) from CYQL Reporting Station
Broken Clouds Broken Clouds  
Wind Chill: 27°   Ceiling: 8500
Heat Index: 37°   Visibility: 9mi
Dew Point: 28°   Wind: 20mph
Humidity: 70%   Direction: 270°W
Pressure: 29.76"   Gusts: 30mph
Location:  49.73°N, 113.4°W
Report Text: CYQL 200800Z AUTO 27017G26KT 9SM BKN085 BKN180 03/M02 A2976 RMK SLP104
Loading
Personal Weather Stations






























Interactive Weather Map New forecast layout! Learn more

10-Day Weather Forecast

Advertisements
Track Severe Weather on mobile